sensor_id;sensor_type;location;lat;lon;timestamp;temperature;humidity
14020;DHT22;7085;51.428;6.796;2022-10-30T00:00:28;18.50;1.00
14020;DHT22;7085;51.428;6.796;2022-10-30T00:02:55;18.40;1.00
14020;DHT22;7085;51.428;6.796;2022-10-30T00:05:22;18.60;7.70
14020;DHT22;7085;51.428;6.796;2022-10-30T00:07:49;18.30;9.60
14020;DHT22;7085;51.428;6.796;2022-10-30T00:10:17;18.40;9.80
14020;DHT22;7085;51.428;6.796;2022-10-30T00:12:44;18.30;13.20
14020;DHT22;7085;51.428;6.796;2022-10-30T00:15:11;18.30;15.10
14020;DHT22;7085;51.428;6.796;2022-10-30T00:17:38;18.20;22.10
14020;DHT22;7085;51.428;6.796;2022-10-30T00:20:06;18.20;26.50
14020;DHT22;7085;51.428;6.796;2022-10-30T00:22:34;18.20;26.90
14020;DHT22;7085;51.428;6.796;2022-10-30T00:25:01;18.10;28.60
14020;DHT22;7085;51.428;6.796;2022-10-30T00:27:29;18.10;30.60
14020;DHT22;7085;51.428;6.796;2022-10-30T00:29:56;18.10;31.50
14020;DHT22;7085;51.428;6.796;2022-10-30T00:32:23;18.00;34.70
14020;DHT22;7085;51.428;6.796;2022-10-30T00:34:50;18.00;43.50
14020;DHT22;7085;51.428;6.796;2022-10-30T00:37:16;17.90;45.00
14020;DHT22;7085;51.428;6.796;2022-10-30T00:39:43;17.90;57.20
14020;DHT22;7085;51.428;6.796;2022-10-30T00:42:12;17.80;60.50
14020;DHT22;7085;51.428;6.796;2022-10-30T00:44:44;17.80;64.40
14020;DHT22;7085;51.428;6.796;2022-10-30T00:47:17;17.70;66.80
14020;DHT22;7085;51.428;6.796;2022-10-30T00:49:56;17.50;87.50
14020;DHT22;7085;51.428;6.796;2022-10-30T00:52:27;17.50;97.20
14020;DHT22;7085;51.428;6.796;2022-10-30T00:54:56;17.40;99.90
14020;DHT22;7085;51.428;6.796;2022-10-30T00:57:23;17.40;99.90
14020;DHT22;7085;51.428;6.796;2022-10-30T00:59:52;17.40;99.90
14020;DHT22;7085;51.428;6.796;2022-10-30T01:02:19;17.50;99.90
14020;DHT22;7085;51.428;6.796;2022-10-30T01:04:47;17.90;99.90
14020;DHT22;7085;51.428;6.796;2022-10-30T01:07:16;17.30;99.90
14020;DHT22;7085;51.428;6.796;2022-10-30T01:09:44;17.30;99.90
14020;DHT22;7085;51.428;6.796;2022-10-30T01:12:12;17.30;99.90
14020;DHT22;7085;51.428;6.796;2022-10-30T01:14:42;17.30;99.90
14020;DHT22;7085;51.428;6.796;2022-10-30T01:17:23;17.20;99.90
14020;DHT22;7085;51.428;6.796;2022-10-30T01:20:05;17.20;99.90
14020;DHT22;7085;51.428;6.796;2022-10-30T01:22:45;17.20;99.90
14020;DHT22;7085;51.428;6.796;2022-10-30T01:25:28;17.10;99.90
14020;DHT22;7085;51.428;6.796;2022-10-30T01:28:03;17.70;99.90
14020;DHT22;7085;51.428;6.796;2022-10-30T01:30:42;17.00;99.90
14020;DHT22;7085;51.428;6.796;2022-10-30T01:36:38;16.90;99.90
14020;DHT22;7085;51.428;6.796;2022-10-30T01:39:11;16.90;99.90
14020;DHT22;7085;51.428;6.796;2022-10-30T01:41:38;16.80;99.90
14020;DHT22;7085;51.428;6.796;2022-10-30T01:44:07;16.80;99.90
14020;DHT22;7085;51.428;6.796;2022-10-30T01:46:59;16.80;99.90
14020;DHT22;7085;51.428;6.796;2022-10-30T01:49:44;16.80;99.90
14020;DHT22;7085;51.428;6.796;2022-10-30T01:52:19;16.70;99.90
14020;DHT22;7085;51.428;6.796;2022-10-30T01:54:55;16.80;99.90
14020;DHT22;7085;51.428;6.796;2022-10-30T01:57:33;16.70;99.90
14020;DHT22;7085;51.428;6.796;2022-10-30T02:00:03;16.70;99.90
14020;DHT22;7085;51.428;6.796;2022-10-30T02:02:31;16.70;99.90
14020;DHT22;7085;51.428;6.796;2022-10-30T02:04:58;16.60;99.90
14020;DHT22;7085;51.428;6.796;2022-10-30T02:07:26;16.70;99.90
14020;DHT22;7085;51.428;6.796;2022-10-30T02:09:53;16.60;99.90
14020;DHT22;7085;51.428;6.796;2022-10-30T02:12:22;16.60;99.90
14020;DHT22;7085;51.428;6.796;2022-10-30T02:14:52;16.50;99.90
14020;DHT22;7085;51.428;6.796;2022-10-30T02:17:19;16.50;99.90
14020;DHT22;7085;51.428;6.796;2022-10-30T02:19:46;16.50;99.90
14020;DHT22;7085;51.428;6.796;2022-10-30T02:22:15;16.50;99.90
14020;DHT22;7085;51.428;6.796;2022-10-30T02:24:42;16.50;99.90
14020;DHT22;7085;51.428;6.796;2022-10-30T02:27:09;16.50;99.90
14020;DHT22;7085;51.428;6.796;2022-10-30T02:29:37;16.50;99.90
14020;DHT22;7085;51.428;6.796;2022-10-30T02:32:03;18.00;99.90
14020;DHT22;7085;51.428;6.796;2022-10-30T02:34:30;16.40;99.90
14020;DHT22;7085;51.428;6.796;2022-10-30T02:36:57;16.30;99.90
14020;DHT22;7085;51.428;6.796;2022-10-30T02:39:25;18.50;99.90
14020;DHT22;7085;51.428;6.796;2022-10-30T02:41:52;16.10;99.90
14020;DHT22;7085;51.428;6.796;2022-10-30T02:44:18;13.20;99.90
14020;DHT22;7085;51.428;6.796;2022-10-30T02:46:45;15.70;99.90
14020;DHT22;7085;51.428;6.796;2022-10-30T02:49:12;17.00;99.90
14020;DHT22;7085;51.428;6.796;2022-10-30T02:51:39;16.10;99.90
14020;DHT22;7085;51.428;6.796;2022-10-30T02:54:06;15.80;99.90
14020;DHT22;7085;51.428;6.796;2022-10-30T02:56:34;15.80;99.90
14020;DHT22;7085;51.428;6.796;2022-10-30T02:59:00;15.90;99.90
14020;DHT22;7085;51.428;6.796;2022-10-30T03:01:27;15.80;99.90
14020;DHT22;7085;51.428;6.796;2022-10-30T03:03:54;16.10;99.90
14020;DHT22;7085;51.428;6.796;2022-10-30T03:06:20;15.80;99.90
14020;DHT22;7085;51.428;6.796;2022-10-30T03:08:47;15.80;99.90
14020;DHT22;7085;51.428;6.796;2022-10-30T03:11:16;15.70;99.90
14020;DHT22;7085;51.428;6.796;2022-10-30T03:13:45;15.60;99.90
14020;DHT22;7085;51.428;6.796;2022-10-30T03:16:14;15.70;99.90
14020;DHT22;7085;51.428;6.796;2022-10-30T03:18:42;16.60;99.90
14020;DHT22;7085;51.428;6.796;2022-10-30T03:21:11;16.50;99.90
14020;DHT22;7085;51.428;6.796;2022-10-30T03:23:38;15.50;99.90
14020;DHT22;7085;51.428;6.796;2022-10-30T03:26:05;15.50;99.90
14020;DHT22;7085;51.428;6.796;2022-10-30T03:28:32;15.40;99.90
14020;DHT22;7085;51.428;6.796;2022-10-30T03:31:02;15.40;99.90
14020;DHT22;7085;51.428;6.796;2022-10-30T03:33:29;15.30;99.90
14020;DHT22;7085;51.428;6.796;2022-10-30T03:35:56;16.60;99.90
14020;DHT22;7085;51.428;6.796;2022-10-30T03:38:23;15.30;99.90
14020;DHT22;7085;51.428;6.796;2022-10-30T03:40:50;15.60;99.90
14020;DHT22;7085;51.428;6.796;2022-10-30T03:43:17;15.00;99.90
14020;DHT22;7085;51.428;6.796;2022-10-30T03:45:48;15.00;99.90
14020;DHT22;7085;51.428;6.796;2022-10-30T03:48:18;15.10;99.90
14020;DHT22;7085;51.428;6.796;2022-10-30T03:50:45;15.10;99.90
14020;DHT22;7085;51.428;6.796;2022-10-30T03:53:13;15.00;99.90
14020;DHT22;7085;51.428;6.796;2022-10-30T03:55:40;14.90;99.90
14020;DHT22;7085;51.428;6.796;2022-10-30T03:58:07;14.80;99.90
14020;DHT22;7085;51.428;6.796;2022-10-30T04:00:34;14.90;99.90
14020;DHT22;7085;51.428;6.796;2022-10-30T04:03:05;14.70;99.90
14020;DHT22;7085;51.428;6.796;2022-10-30T04:05:34;14.70;99.90
14020;DHT22;7085;51.428;6.796;2022-10-30T04:08:03;14.60;99.90
14020;DHT22;7085;51.428;6.796;2022-10-30T04:10:30;14.60;99.90
14020;DHT22;7085;51.428;6.796;2022-10-30T04:12:59;14.60;99.90
14020;DHT22;7085;51.428;6.796;2022-10-30T04:15:26;14.80;99.90
14020;DHT22;7085;51.428;6.796;2022-10-30T04:17:53;14.50;99.90
14020;DHT22;7085;51.428;6.796;2022-10-30T04:20:21;14.50;99.90
14020;DHT22;7085;51.428;6.796;2022-10-30T04:22:54;14.50;99.90
14020;DHT22;7085;51.428;6.796;2022-10-30T04:25:21;14.40;99.90
14020;DHT22;7085;51.428;6.796;2022-10-30T04:27:48;14.40;99.90
14020;DHT22;7085;51.428;6.796;2022-10-30T04:30:17;14.40;99.90
14020;DHT22;7085;51.428;6.796;2022-10-30T04:32:46;14.30;99.90
14020;DHT22;7085;51.428;6.796;2022-10-30T04:35:13;14.40;99.90
14020;DHT22;7085;51.428;6.796;2022-10-30T04:37:39;14.40;99.90
14020;DHT22;7085;51.428;6.796;2022-10-30T04:40:09;14.30;99.90
14020;DHT22;7085;51.428;6.796;2022-10-30T04:42:35;14.40;99.90
14020;DHT22;7085;51.428;6.796;2022-10-30T04:45:02;14.60;99.90
14020;DHT22;7085;51.428;6.796;2022-10-30T04:47:29;13.50;99.90
14020;DHT22;7085;51.428;6.796;2022-10-30T04:49:56;14.60;99.90
14020;DHT22;7085;51.428;6.796;2022-10-30T04:52:23;14.60;99.90
14020;DHT22;7085;51.428;6.796;2022-10-30T04:54:49;14.80;99.90
14020;DHT22;7085;51.428;6.796;2022-10-30T04:57:17;14.80;99.90
14020;DHT22;7085;51.428;6.796;2022-10-30T04:59:44;14.90;99.90
14020;DHT22;7085;51.428;6.796;2022-10-30T05:02:11;15.10;99.90
14020;DHT22;7085;51.428;6.796;2022-10-30T05:04:38;15.10;99.90
14020;DHT22;7085;51.428;6.796;2022-10-30T05:07:04;15.40;99.90
14020;DHT22;7085;51.428;6.796;2022-10-30T05:09:31;15.30;99.90
14020;DHT22;7085;51.428;6.796;2022-10-30T05:11:58;15.20;99.90
14020;DHT22;7085;51.428;6.796;2022-10-30T05:14:28;15.20;99.90
14020;DHT22;7085;51.428;6.796;2022-10-30T05:16:55;15.20;99.90
14020;DHT22;7085;51.428;6.796;2022-10-30T05:19:24;15.20;99.90
14020;DHT22;7085;51.428;6.796;2022-10-30T05:21:51;15.20;99.90
14020;DHT22;7085;51.428;6.796;2022-10-30T05:24:17;15.20;99.90
14020;DHT22;7085;51.428;6.796;2022-10-30T05:26:45;15.20;99.90
14020;DHT22;7085;51.428;6.796;2022-10-30T05:29:11;15.30;99.90
14020;DHT22;7085;51.428;6.796;2022-10-30T05:31:40;15.20;99.90
14020;DHT22;7085;51.428;6.796;2022-10-30T05:34:06;15.20;99.90
14020;DHT22;7085;51.428;6.796;2022-10-30T05:36:33;15.20;99.90
14020;DHT22;7085;51.428;6.796;2022-10-30T05:39:00;15.10;99.90
14020;DHT22;7085;51.428;6.796;2022-10-30T05:41:27;15.10;99.90
14020;DHT22;7085;51.428;6.796;2022-10-30T05:43:54;15.00;99.90
14020;DHT22;7085;51.428;6.796;2022-10-30T05:46:21;14.90;99.90
14020;DHT22;7085;51.428;6.796;2022-10-30T05:48:49;14.90;99.90
14020;DHT22;7085;51.428;6.796;2022-10-30T05:51:15;14.90;99.90
14020;DHT22;7085;51.428;6.796;2022-10-30T05:53:42;14.90;99.90
14020;DHT22;7085;51.428;6.796;2022-10-30T05:56:09;14.80;99.90
14020;DHT22;7085;51.428;6.796;2022-10-30T05:58:35;15.30;99.90
14020;DHT22;7085;51.428;6.796;2022-10-30T06:01:04;14.80;99.90
14020;DHT22;7085;51.428;6.796;2022-10-30T06:03:31;14.80;99.90
14020;DHT22;7085;51.428;6.796;2022-10-30T06:05:59;14.80;99.90
14020;DHT22;7085;51.428;6.796;2022-10-30T06:08:26;14.80;99.90
14020;DHT22;7085;51.428;6.796;2022-10-30T06:10:53;14.90;99.90
14020;DHT22;7085;51.428;6.796;2022-10-30T06:13:19;14.70;99.90
14020;DHT22;7085;51.428;6.796;2022-10-30T06:15:46;14.60;99.90
14020;DHT22;7085;51.428;6.796;2022-10-30T06:18:13;14.50;99.90
14020;DHT22;7085;51.428;6.796;2022-10-30T06:20:40;14.40;99.90
14020;DHT22;7085;51.428;6.796;2022-10-30T06:23:09;14.20;99.90
14020;DHT22;7085;51.428;6.796;2022-10-30T06:25:36;14.00;99.90
14020;DHT22;7085;51.428;6.796;2022-10-30T06:28:03;14.00;99.90
14020;DHT22;7085;51.428;6.796;2022-10-30T06:30:30;14.00;99.90
14020;DHT22;7085;51.428;6.796;2022-10-30T06:32:57;14.00;99.90
14020;DHT22;7085;51.428;6.796;2022-10-30T06:35:23;14.00;99.90
14020;DHT22;7085;51.428;6.796;2022-10-30T06:37:51;14.00;99.90
14020;DHT22;7085;51.428;6.796;2022-10-30T06:40:19;14.00;99.90
14020;DHT22;7085;51.428;6.796;2022-10-30T06:42:48;14.00;99.90
14020;DHT22;7085;51.428;6.796;2022-10-30T06:45:16;14.10;99.90
14020;DHT22;7085;51.428;6.796;2022-10-30T06:47:43;14.20;99.90
14020;DHT22;7085;51.428;6.796;2022-10-30T06:50:12;14.50;99.90
14020;DHT22;7085;51.428;6.796;2022-10-30T06:52:39;14.30;99.90
14020;DHT22;7085;51.428;6.796;2022-10-30T06:55:07;14.50;99.90
14020;DHT22;7085;51.428;6.796;2022-10-30T06:57:35;14.50;99.90
14020;DHT22;7085;51.428;6.796;2022-10-30T07:00:02;14.50;99.90
14020;DHT22;7085;51.428;6.796;2022-10-30T07:02:30;14.80;99.90
14020;DHT22;7085;51.428;6.796;2022-10-30T07:04:57;14.70;99.90
14020;DHT22;7085;51.428;6.796;2022-10-30T07:07:23;14.70;99.90
14020;DHT22;7085;51.428;6.796;2022-10-30T07:09:50;14.80;99.90
14020;DHT22;7085;51.428;6.796;2022-10-30T07:12:17;15.00;99.90
14020;DHT22;7085;51.428;6.796;2022-10-30T07:14:45;15.10;99.90
14020;DHT22;7085;51.428;6.796;2022-10-30T07:17:12;15.10;99.90
14020;DHT22;7085;51.428;6.796;2022-10-30T07:19:38;15.20;99.90
14020;DHT22;7085;51.428;6.796;2022-10-30T07:22:05;15.20;99.90
14020;DHT22;7085;51.428;6.796;2022-10-30T07:24:32;15.30;99.90
14020;DHT22;7085;51.428;6.796;2022-10-30T07:26:58;15.30;99.90
14020;DHT22;7085;51.428;6.796;2022-10-30T07:29:25;15.40;99.90
14020;DHT22;7085;51.428;6.796;2022-10-30T07:31:53;15.40;99.90
14020;DHT22;7085;51.428;6.796;2022-10-30T07:34:20;15.40;99.90
14020;DHT22;7085;51.428;6.796;2022-10-30T07:36:46;15.50;99.90
14020;DHT22;7085;51.428;6.796;2022-10-30T07:39:13;15.50;99.90
14020;DHT22;7085;51.428;6.796;2022-10-30T07:41:40;15.60;99.90
14020;DHT22;7085;51.428;6.796;2022-10-30T07:44:06;16.80;99.90
14020;DHT22;7085;51.428;6.796;2022-10-30T07:46:33;15.70;99.90
14020;DHT22;7085;51.428;6.796;2022-10-30T07:49:01;15.90;99.90
14020;DHT22;7085;51.428;6.796;2022-10-30T07:51:28;16.00;99.90
14020;DHT22;7085;51.428;6.796;2022-10-30T07:53:55;16.50;99.90
14020;DHT22;7085;51.428;6.796;2022-10-30T07:56:21;16.60;99.90
14020;DHT22;7085;51.428;6.796;2022-10-30T07:58:48;17.10;99.90
14020;DHT22;7085;51.428;6.796;2022-10-30T08:01:15;17.70;99.90
14020;DHT22;7085;51.428;6.796;2022-10-30T08:03:42;18.40;99.90
14020;DHT22;7085;51.428;6.796;2022-10-30T08:06:10;18.90;99.90
14020;DHT22;7085;51.428;6.796;2022-10-30T08:08:37;19.60;99.90
14020;DHT22;7085;51.428;6.796;2022-10-30T08:11:04;20.20;99.90
14020;DHT22;7085;51.428;6.796;2022-10-30T08:13:30;20.60;77.90
14020;DHT22;7085;51.428;6.796;2022-10-30T08:15:57;20.90;69.80
14020;DHT22;7085;51.428;6.796;2022-10-30T08:18:24;21.40;40.90
14020;DHT22;7085;51.428;6.796;2022-10-30T08:20:51;21.80;26.10
14020;DHT22;7085;51.428;6.796;2022-10-30T08:23:22;22.10;14.40
14020;DHT22;7085;51.428;6.796;2022-10-30T08:25:48;22.60;1.00
14020;DHT22;7085;51.428;6.796;2022-10-30T08:28:15;22.50;1.00
14020;DHT22;7085;51.428;6.796;2022-10-30T08:30:42;22.30;1.00
14020;DHT22;7085;51.428;6.796;2022-10-30T08:33:11;22.00;1.00
14020;DHT22;7085;51.428;6.796;2022-10-30T08:35:46;21.80;1.90
14020;DHT22;7085;51.428;6.796;2022-10-30T08:38:13;21.40;21.40
14020;DHT22;7085;51.428;6.796;2022-10-30T08:40:41;21.30;22.20
14020;DHT22;7085;51.428;6.796;2022-10-30T08:43:08;21.10;31.10
14020;DHT22;7085;51.428;6.796;2022-10-30T08:45:35;20.80;53.60
14020;DHT22;7085;51.428;6.796;2022-10-30T08:48:04;20.60;62.70
14020;DHT22;7085;51.428;6.796;2022-10-30T08:50:32;20.40;81.30
14020;DHT22;7085;51.428;6.796;2022-10-30T08:53:00;20.20;96.40
14020;DHT22;7085;51.428;6.796;2022-10-30T08:55:27;20.40;96.70
14020;DHT22;7085;51.428;6.796;2022-10-30T08:57:55;20.80;85.50
14020;DHT22;7085;51.428;6.796;2022-10-30T09:00:22;21.00;55.30
14020;DHT22;7085;51.428;6.796;2022-10-30T09:02:49;20.70;71.30
14020;DHT22;7085;51.428;6.796;2022-10-30T09:05:16;20.50;91.10
14020;DHT22;7085;51.428;6.796;2022-10-30T09:07:42;20.20;99.90
14020;DHT22;7085;51.428;6.796;2022-10-30T09:10:09;20.10;99.90
14020;DHT22;7085;51.428;6.796;2022-10-30T09:12:36;20.00;99.90
14020;DHT22;7085;51.428;6.796;2022-10-30T09:15:05;19.80;99.90
14020;DHT22;7085;51.428;6.796;2022-10-30T09:17:32;19.80;99.90
14020;DHT22;7085;51.428;6.796;2022-10-30T09:19:59;19.80;99.90
14020;DHT22;7085;51.428;6.796;2022-10-30T09:22:26;19.90;99.90
14020;DHT22;7085;51.428;6.796;2022-10-30T09:24:52;20.20;99.90
14020;DHT22;7085;51.428;6.796;2022-10-30T09:27:19;20.20;99.90
14020;DHT22;7085;51.428;6.796;2022-10-30T09:29:46;20.80;98.60
14020;DHT22;7085;51.428;6.796;2022-10-30T09:32:14;21.20;79.90
14020;DHT22;7085;51.428;6.796;2022-10-30T09:34:40;21.10;80.70
14020;DHT22;7085;51.428;6.796;2022-10-30T09:37:07;21.20;72.40
14020;DHT22;7085;51.428;6.796;2022-10-30T09:39:34;21.30;81.60
14020;DHT22;7085;51.428;6.796;2022-10-30T09:45:25;22.70;12.00
14020;DHT22;7085;51.428;6.796;2022-10-30T09:48:04;22.90;6.70
14020;DHT22;7085;51.428;6.796;2022-10-30T09:50:36;24.00;1.00
14020;DHT22;7085;51.428;6.796;2022-10-30T09:53:11;24.70;1.00
14020;DHT22;7085;51.428;6.796;2022-10-30T09:55:44;26.10;1.00
14020;DHT22;7085;51.428;6.796;2022-10-30T09:58:20;26.90;1.00
14020;DHT22;7085;51.428;6.796;2022-10-30T10:00:51;27.60;1.00
14020;DHT22;7085;51.428;6.796;2022-10-30T10:03:30;27.60;1.00
14020;DHT22;7085;51.428;6.796;2022-10-30T10:06:01;27.30;1.00
14020;DHT22;7085;51.428;6.796;2022-10-30T10:08:32;26.80;1.00
14020;DHT22;7085;51.428;6.796;2022-10-30T10:11:02;26.90;1.00
14020;DHT22;7085;51.428;6.796;2022-10-30T10:13:37;27.20;1.00
14020;DHT22;7085;51.428;6.796;2022-10-30T10:16:11;27.30;1.00
14020;DHT22;7085;51.428;6.796;2022-10-30T10:18:44;27.60;1.00
14020;DHT22;7085;51.428;6.796;2022-10-30T10:21:17;27.50;1.00
14020;DHT22;7085;51.428;6.796;2022-10-30T10:23:47;27.40;1.00
14020;DHT22;7085;51.428;6.796;2022-10-30T10:26:25;27.80;1.00
14020;DHT22;7085;51.428;6.796;2022-10-30T10:29:03;27.60;1.00
14020;DHT22;7085;51.428;6.796;2022-10-30T10:31:42;27.90;1.00
14020;DHT22;7085;51.428;6.796;2022-10-30T10:34:34;27.60;1.00
14020;DHT22;7085;51.428;6.796;2022-10-30T10:37:12;27.80;1.00
14020;DHT22;7085;51.428;6.796;2022-10-30T10:39:55;27.80;1.00
14020;DHT22;7085;51.428;6.796;2022-10-30T10:42:33;28.00;1.00
14020;DHT22;7085;51.428;6.796;2022-10-30T10:45:20;27.90;1.00
14020;DHT22;7085;51.428;6.796;2022-10-30T10:48:16;28.00;1.00
14020;DHT22;7085;51.428;6.796;2022-10-30T10:50:49;28.90;1.00
14020;DHT22;7085;51.428;6.796;2022-10-30T10:53:20;29.30;1.00
14020;DHT22;7085;51.428;6.796;2022-10-30T10:55:50;29.20;1.00
14020;DHT22;7085;51.428;6.796;2022-10-30T10:58:30;29.20;1.00
14020;DHT22;7085;51.428;6.796;2022-10-30T11:00:58;29.30;1.00
14020;DHT22;7085;51.428;6.796;2022-10-30T11:03:31;29.10;1.00
14020;DHT22;7085;51.428;6.796;2022-10-30T11:06:15;29.20;1.00
14020;DHT22;7085;51.428;6.796;2022-10-30T11:08:43;29.60;1.00
14020;DHT22;7085;51.428;6.796;2022-10-30T11:11:10;30.10;1.00
14020;DHT22;7085;51.428;6.796;2022-10-30T11:13:38;30.60;1.00
14020;DHT22;7085;51.428;6.796;2022-10-30T11:16:12;31.60;1.00
14020;DHT22;7085;51.428;6.796;2022-10-30T11:18:43;29.70;1.00
14020;DHT22;7085;51.428;6.796;2022-10-30T11:21:16;31.50;1.00
14020;DHT22;7085;51.428;6.796;2022-10-30T11:23:45;30.90;1.00
14020;DHT22;7085;51.428;6.796;2022-10-30T11:26:30;30.20;1.00
14020;DHT22;7085;51.428;6.796;2022-10-30T11:29:01;29.40;1.00
14020;DHT22;7085;51.428;6.796;2022-10-30T11:31:31;29.00;1.00
14020;DHT22;7085;51.428;6.796;2022-10-30T11:34:24;28.90;1.00
14020;DHT22;7085;51.428;6.796;2022-10-30T11:36:54;28.30;1.00
14020;DHT22;7085;51.428;6.796;2022-10-30T11:39:23;28.30;1.00
14020;DHT22;7085;51.428;6.796;2022-10-30T11:41:59;28.30;1.00
14020;DHT22;7085;51.428;6.796;2022-10-30T11:44:30;28.80;1.00
14020;DHT22;7085;51.428;6.796;2022-10-30T11:46:57;28.90;1.00
14020;DHT22;7085;51.428;6.796;2022-10-30T11:49:33;29.00;1.00
14020;DHT22;7085;51.428;6.796;2022-10-30T11:52:04;29.20;1.00
14020;DHT22;7085;51.428;6.796;2022-10-30T11:54:35;28.80;1.00
14020;DHT22;7085;51.428;6.796;2022-10-30T11:57:04;28.60;1.00
14020;DHT22;7085;51.428;6.796;2022-10-30T11:59:37;28.30;1.00
14020;DHT22;7085;51.428;6.796;2022-10-30T12:02:19;29.30;1.00
14020;DHT22;7085;51.428;6.796;2022-10-30T12:04:47;27.60;1.00
14020;DHT22;7085;51.428;6.796;2022-10-30T12:07:22;27.60;1.00
14020;DHT22;7085;51.428;6.796;2022-10-30T12:09:49;27.70;1.00
14020;DHT22;7085;51.428;6.796;2022-10-30T12:12:21;27.90;1.00
14020;DHT22;7085;51.428;6.796;2022-10-30T12:14:49;27.80;1.00
14020;DHT22;7085;51.428;6.796;2022-10-30T12:17:17;27.90;1.00
14020;DHT22;7085;51.428;6.796;2022-10-30T12:19:46;28.10;1.00
14020;DHT22;7085;51.428;6.796;2022-10-30T12:22:27;27.70;1.00
14020;DHT22;7085;51.428;6.796;2022-10-30T12:24:55;27.40;1.00
14020;DHT22;7085;51.428;6.796;2022-10-30T12:27:22;27.30;1.00
14020;DHT22;7085;51.428;6.796;2022-10-30T12:29:59;27.80;1.00
14020;DHT22;7085;51.428;6.796;2022-10-30T12:32:33;28.20;1.00
14020;DHT22;7085;51.428;6.796;2022-10-30T12:35:03;28.30;1.00
14020;DHT22;7085;51.428;6.796;2022-10-30T12:37:36;28.20;1.00
14020;DHT22;7085;51.428;6.796;2022-10-30T12:40:09;28.10;1.00
14020;DHT22;7085;51.428;6.796;2022-10-30T12:42:41;28.00;1.00
14020;DHT22;7085;51.428;6.796;2022-10-30T12:45:13;27.00;1.00
14020;DHT22;7085;51.428;6.796;2022-10-30T12:47:46;26.80;1.00
14020;DHT22;7085;51.428;6.796;2022-10-30T12:50:19;26.40;1.00
14020;DHT22;7085;51.428;6.796;2022-10-30T12:52:55;25.80;1.00
14020;DHT22;7085;51.428;6.796;2022-10-30T12:55:26;25.40;1.00
14020;DHT22;7085;51.428;6.796;2022-10-30T12:58:01;25.30;1.00
14020;DHT22;7085;51.428;6.796;2022-10-30T13:00:32;25.70;1.00
14020;DHT22;7085;51.428;6.796;2022-10-30T13:03:15;24.80;1.00
14020;DHT22;7085;51.428;6.796;2022-10-30T13:05:48;24.60;1.00
14020;DHT22;7085;51.428;6.796;2022-10-30T13:08:22;24.40;1.00
14020;DHT22;7085;51.428;6.796;2022-10-30T13:10:53;24.10;1.00
14020;DHT22;7085;51.428;6.796;2022-10-30T13:13:24;24.00;1.00
14020;DHT22;7085;51.428;6.796;2022-10-30T13:15:54;23.90;1.00
14020;DHT22;7085;51.428;6.796;2022-10-30T13:18:24;23.90;1.00
14020;DHT22;7085;51.428;6.796;2022-10-30T13:21:18;23.90;1.00
14020;DHT22;7085;51.428;6.796;2022-10-30T13:23:51;23.90;1.00
14020;DHT22;7085;51.428;6.796;2022-10-30T13:26:26;24.00;1.00
14020;DHT22;7085;51.428;6.796;2022-10-30T13:29:02;23.90;1.00
14020;DHT22;7085;51.428;6.796;2022-10-30T13:31:36;23.80;1.00
14020;DHT22;7085;51.428;6.796;2022-10-30T13:34:15;23.70;1.00
14020;DHT22;7085;51.428;6.796;2022-10-30T13:36:50;23.60;1.00
14020;DHT22;7085;51.428;6.796;2022-10-30T13:39:26;23.60;1.00
14020;DHT22;7085;51.428;6.796;2022-10-30T13:42:03;23.60;1.00
14020;DHT22;7085;51.428;6.796;2022-10-30T13:44:41;23.50;1.00
14020;DHT22;7085;51.428;6.796;2022-10-30T13:47:16;23.70;1.00
14020;DHT22;7085;51.428;6.796;2022-10-30T13:50:07;23.60;1.00
14020;DHT22;7085;51.428;6.796;2022-10-30T13:52:37;23.70;1.00
14020;DHT22;7085;51.428;6.796;2022-10-30T13:55:16;23.60;1.00
14020;DHT22;7085;51.428;6.796;2022-10-30T13:57:48;23.70;1.00
14020;DHT22;7085;51.428;6.796;2022-10-30T14:00:19;23.60;1.00
14020;DHT22;7085;51.428;6.796;2022-10-30T14:03:02;23.50;1.00
14020;DHT22;7085;51.428;6.796;2022-10-30T14:05:37;23.50;1.00
14020;DHT22;7085;51.428;6.796;2022-10-30T14:08:09;23.70;1.00
14020;DHT22;7085;51.428;6.796;2022-10-30T14:10:51;23.50;1.00
14020;DHT22;7085;51.428;6.796;2022-10-30T14:13:23;23.40;1.00
14020;DHT22;7085;51.428;6.796;2022-10-30T14:15:55;23.40;1.00
14020;DHT22;7085;51.428;6.796;2022-10-30T14:18:31;23.40;1.00
14020;DHT22;7085;51.428;6.796;2022-10-30T14:20:59;23.40;1.00
14020;DHT22;7085;51.428;6.796;2022-10-30T14:23:45;23.40;1.00
14020;DHT22;7085;51.428;6.796;2022-10-30T14:26:20;23.30;1.00
14020;DHT22;7085;51.428;6.796;2022-10-30T14:28:47;23.30;1.00
14020;DHT22;7085;51.428;6.796;2022-10-30T14:31:17;23.30;1.00
14020;DHT22;7085;51.428;6.796;2022-10-30T14:33:46;23.30;1.00
14020;DHT22;7085;51.428;6.796;2022-10-30T14:36:16;23.20;4.50
14020;DHT22;7085;51.428;6.796;2022-10-30T14:38:52;23.10;8.10
14020;DHT22;7085;51.428;6.796;2022-10-30T14:41:47;23.00;15.30
14020;DHT22;7085;51.428;6.796;2022-10-30T14:44:42;22.90;23.00
14020;DHT22;7085;51.428;6.796;2022-10-30T14:47:33;22.90;21.10
14020;DHT22;7085;51.428;6.796;2022-10-30T14:50:14;22.80;26.70
14020;DHT22;7085;51.428;6.796;2022-10-30T14:52:48;22.80;34.50
14020;DHT22;7085;51.428;6.796;2022-10-30T14:55:24;22.70;36.90
14020;DHT22;7085;51.428;6.796;2022-10-30T14:58:16;22.70;45.80
14020;DHT22;7085;51.428;6.796;2022-10-30T15:00:45;22.70;45.00
14020;DHT22;7085;51.428;6.796;2022-10-30T15:03:23;22.50;58.30
14020;DHT22;7085;51.428;6.796;2022-10-30T15:05:53;22.50;81.10
14020;DHT22;7085;51.428;6.796;2022-10-30T15:08:39;22.40;91.30
14020;DHT22;7085;51.428;6.796;2022-10-30T15:11:24;22.30;97.80
14020;DHT22;7085;51.428;6.796;2022-10-30T15:13:54;22.10;99.30
14020;DHT22;7085;51.428;6.796;2022-10-30T15:16:23;22.00;99.90
14020;DHT22;7085;51.428;6.796;2022-10-30T15:18:56;21.90;99.90
14020;DHT22;7085;51.428;6.796;2022-10-30T15:21:25;21.80;99.90
14020;DHT22;7085;51.428;6.796;2022-10-30T15:23:56;21.80;99.90
14020;DHT22;7085;51.428;6.796;2022-10-30T15:26:30;21.70;99.90
14020;DHT22;7085;51.428;6.796;2022-10-30T15:28:59;21.70;99.90
14020;DHT22;7085;51.428;6.796;2022-10-30T15:31:28;21.70;99.90
14020;DHT22;7085;51.428;6.796;2022-10-30T15:33:55;21.70;99.90
14020;DHT22;7085;51.428;6.796;2022-10-30T15:36:25;21.50;99.90
14020;DHT22;7085;51.428;6.796;2022-10-30T15:39:04;21.40;99.90
14020;DHT22;7085;51.428;6.796;2022-10-30T15:41:33;21.20;99.90
14020;DHT22;7085;51.428;6.796;2022-10-30T15:44:01;21.00;99.90
14020;DHT22;7085;51.428;6.796;2022-10-30T15:46:28;20.80;99.90
14020;DHT22;7085;51.428;6.796;2022-10-30T15:48:56;20.60;99.90
14020;DHT22;7085;51.428;6.796;2022-10-30T15:51:23;20.50;99.90
14020;DHT22;7085;51.428;6.796;2022-10-30T15:53:51;20.30;99.90
14020;DHT22;7085;51.428;6.796;2022-10-30T15:56:24;20.20;99.90
14020;DHT22;7085;51.428;6.796;2022-10-30T15:58:55;20.10;99.90
14020;DHT22;7085;51.428;6.796;2022-10-30T16:01:25;19.90;99.90
14020;DHT22;7085;51.428;6.796;2022-10-30T16:03:53;19.70;99.90
14020;DHT22;7085;51.428;6.796;2022-10-30T16:06:23;19.60;99.90
14020;DHT22;7085;51.428;6.796;2022-10-30T16:08:50;19.50;99.90
14020;DHT22;7085;51.428;6.796;2022-10-30T16:11:17;19.40;99.90
14020;DHT22;7085;51.428;6.796;2022-10-30T16:13:45;19.30;99.90
14020;DHT22;7085;51.428;6.796;2022-10-30T16:16:23;19.20;99.90